createdAt,value
2018-06-30T00:02:12.394Z,19.07
2018-06-30T00:04:45.778Z,20.83
2018-06-30T00:07:14.171Z,20.67
2018-06-30T00:09:42.469Z,20.27
2018-06-30T00:12:10.580Z,19.57
2018-06-30T00:14:38.569Z,20.17
2018-06-30T00:17:06.613Z,19.97
2018-06-30T00:19:35.006Z,19.53
2018-06-30T00:22:03.203Z,21.37
2018-06-30T00:24:31.434Z,20.10
2018-06-30T00:27:05.348Z,21.53
2018-06-30T00:29:33.542Z,21.37
2018-06-30T00:32:01.688Z,20.00
2018-06-30T00:34:29.726Z,21.30
2018-06-30T00:36:57.812Z,22.03
2018-06-30T00:39:25.830Z,22.47
2018-06-30T00:41:53.967Z,23.10
2018-06-30T00:44:21.931Z,21.33
2018-06-30T00:46:50.393Z,22.10
2018-06-30T00:49:19.488Z,22.20
2018-06-30T00:51:47.864Z,24.90
2018-06-30T00:54:17.036Z,22.77
2018-06-30T00:56:45.502Z,22.70
2018-06-30T00:59:14.076Z,22.50
2018-06-30T01:01:42.224Z,23.80
2018-06-30T01:04:10.211Z,24.70
2018-06-30T01:06:38.152Z,20.00
2018-06-30T01:09:06.718Z,23.27
2018-06-30T01:11:34.914Z,21.30
2018-06-30T01:14:03.235Z,22.27
2018-06-30T01:16:31.405Z,21.50
2018-06-30T01:18:59.369Z,19.60
2018-06-30T01:21:27.297Z,20.10
2018-06-30T01:23:55.325Z,19.33
2018-06-30T01:26:23.288Z,19.90
2018-06-30T01:28:52.377Z,20.57
2018-06-30T01:31:20.482Z,20.00
2018-06-30T01:33:48.622Z,23.37
2018-06-30T01:36:16.729Z,22.20
2018-06-30T01:38:44.949Z,20.87
2018-06-30T01:41:13.275Z,22.37
2018-06-30T01:43:41.269Z,22.37
2018-06-30T01:46:09.281Z,20.77
2018-06-30T01:48:37.230Z,21.53
2018-06-30T01:51:05.437Z,20.60
2018-06-30T01:53:33.721Z,21.10
2018-06-30T01:56:01.926Z,21.17
2018-06-30T01:58:29.977Z,22.63
2018-06-30T02:00:57.969Z,20.77
2018-06-30T02:03:25.988Z,20.60
2018-06-30T02:05:54.317Z,20.87
2018-06-30T02:08:22.289Z,22.37
2018-06-30T02:10:50.285Z,21.10
2018-06-30T02:13:18.353Z,21.23
2018-06-30T02:15:46.454Z,23.20
2018-06-30T02:18:14.961Z,23.17
2018-06-30T02:20:43.506Z,23.73
2018-06-30T02:23:11.514Z,23.10
2018-06-30T02:25:39.545Z,24.37
2018-06-30T02:28:07.493Z,24.43
2018-06-30T02:30:35.520Z,22.60
2018-06-30T02:33:03.648Z,25.00
2018-06-30T02:35:31.651Z,23.30
2018-06-30T02:37:59.683Z,21.50
2018-06-30T02:40:27.686Z,21.60
2018-06-30T02:42:55.653Z,23.73
2018-06-30T02:45:23.760Z,22.23
2018-06-30T02:47:52.159Z,24.13
2018-06-30T02:50:21.030Z,22.53
2018-06-30T02:52:49.063Z,23.50
2018-06-30T02:55:17.178Z,24.43
2018-06-30T02:57:45.297Z,23.00
2018-06-30T03:00:13.531Z,24.17
2018-06-30T03:02:41.481Z,24.13
2018-06-30T03:05:09.501Z,23.87
2018-06-30T03:07:37.639Z,23.97
2018-06-30T03:10:05.649Z,24.37
2018-06-30T03:12:33.945Z,24.23
2018-06-30T03:15:02.069Z,25.50
2018-06-30T03:17:30.167Z,25.50
2018-06-30T03:19:58.137Z,25.37
2018-06-30T03:22:26.185Z,26.53
2018-06-30T03:24:54.161Z,25.30
2018-06-30T03:27:22.326Z,25.67
2018-06-30T03:29:50.297Z,24.50
2018-06-30T03:32:18.384Z,24.60
2018-06-30T03:34:46.467Z,26.17
2018-06-30T03:37:15.195Z,23.60
2018-06-30T03:39:43.239Z,24.73
2018-06-30T03:42:11.192Z,25.30
2018-06-30T03:44:39.188Z,24.63
2018-06-30T03:47:07.159Z,24.47
2018-06-30T03:49:35.175Z,24.20
2018-06-30T03:52:03.192Z,25.83
2018-06-30T03:54:31.413Z,24.63
2018-06-30T03:56:59.715Z,24.03
2018-06-30T03:59:27.733Z,22.20
2018-06-30T04:01:55.789Z,24.20
2018-06-30T04:04:23.804Z,23.87
2018-06-30T04:06:51.830Z,23.77
2018-06-30T04:09:19.947Z,23.60
2018-06-30T04:11:47.973Z,21.47
2018-06-30T04:14:16.074Z,20.87
2018-06-30T04:16:44.218Z,21.50
2018-06-30T04:19:14.666Z,21.83
2018-06-30T04:21:44.865Z,20.70
2018-06-30T04:24:13.064Z,18.37
2018-06-30T04:26:42.952Z,18.77
2018-06-30T04:29:11.427Z,16.50
2018-06-30T04:31:39.551Z,18.57
2018-06-30T04:34:07.889Z,15.77
2018-06-30T04:36:36.247Z,15.00
2018-06-30T04:39:06.247Z,16.73
2018-06-30T04:41:34.510Z,16.37
2018-06-30T04:44:02.566Z,16.10
2018-06-30T04:46:30.594Z,18.00
2018-06-30T04:48:59.048Z,15.53
2018-06-30T04:51:26.987Z,14.20
2018-06-30T04:53:55.003Z,15.00
2018-06-30T04:56:23.088Z,14.80
2018-06-30T04:58:51.208Z,14.07
2018-06-30T05:01:19.408Z,12.93
2018-06-30T05:03:47.483Z,12.53
2018-06-30T05:06:16.238Z,13.67
2018-06-30T05:08:44.865Z,11.10
2018-06-30T05:11:13.414Z,12.50
2018-06-30T05:13:41.365Z,11.27
2018-06-30T05:16:09.789Z,12.60
2018-06-30T05:18:38.019Z,12.27
2018-06-30T05:21:06.192Z,11.13
2018-06-30T05:23:34.350Z,11.70
2018-06-30T05:26:02.439Z,12.30
2018-06-30T05:28:30.345Z,12.83
2018-06-30T05:30:58.489Z,10.67
2018-06-30T05:33:26.576Z,11.17
2018-06-30T05:35:54.529Z,13.40
2018-06-30T05:38:22.651Z,10.50
2018-06-30T05:40:50.740Z,10.70
2018-06-30T05:43:19.272Z,11.97
2018-06-30T05:45:47.526Z,11.47
2018-06-30T05:48:16.290Z,11.90
2018-06-30T05:50:44.548Z,10.67
2018-06-30T05:53:12.877Z,10.67
2018-06-30T05:55:40.901Z,11.27
2018-06-30T05:58:08.919Z,9.57
2018-06-30T06:00:36.993Z,10.43
2018-06-30T06:03:05.169Z,10.60
2018-06-30T06:05:33.416Z,11.00
2018-06-30T06:08:01.359Z,10.17
2018-06-30T06:10:29.353Z,10.30
2018-06-30T06:12:57.385Z,11.03
2018-06-30T06:15:25.606Z,10.23
2018-06-30T06:17:53.606Z,8.37
2018-06-30T06:20:22.885Z,9.20
2018-06-30T06:22:50.947Z,10.20
2018-06-30T06:25:19.508Z,9.07
2018-06-30T06:27:47.708Z,10.00
2018-06-30T06:30:16.918Z,10.27
2018-06-30T06:32:45.199Z,9.37
2018-06-30T06:35:13.886Z,9.53
2018-06-30T06:37:42.853Z,8.80
2018-06-30T06:40:10.918Z,9.00
2018-06-30T06:42:38.873Z,9.37
2018-06-30T06:45:06.883Z,8.70
2018-06-30T06:47:35.141Z,8.70
2018-06-30T06:50:03.368Z,9.67
2018-06-30T06:52:32.311Z,8.57
2018-06-30T06:55:01.666Z,9.50
2018-06-30T06:57:29.624Z,9.10
2018-06-30T06:59:57.658Z,10.00
2018-06-30T07:02:26.266Z,8.33
2018-06-30T07:04:56.015Z,9.83
2018-06-30T07:07:24.276Z,8.00
2018-06-30T07:09:52.619Z,11.67
2018-06-30T07:12:21.955Z,10.00
2018-06-30T07:14:50.905Z,11.20
2018-06-30T07:17:20.024Z,12.40
2018-06-30T07:19:49.343Z,12.67
2018-06-30T07:22:21.188Z,11.60
2018-06-30T07:24:49.476Z,11.47
2018-06-30T07:27:17.614Z,11.80
2018-06-30T07:29:48.347Z,13.10
2018-06-30T07:32:17.010Z,13.83
2018-06-30T07:34:45.511Z,14.30
2018-06-30T07:37:13.860Z,13.57
2018-06-30T07:39:43.502Z,16.47
2018-06-30T07:42:12.067Z,15.40
2018-06-30T07:44:40.086Z,17.27
2018-06-30T07:47:08.044Z,15.97
2018-06-30T07:49:36.727Z,16.77
2018-06-30T07:52:05.015Z,15.60
2018-06-30T07:54:33.345Z,14.93
2018-06-30T07:57:01.320Z,15.27
2018-06-30T07:59:29.310Z,18.60
2018-06-30T08:01:57.314Z,18.57
2018-06-30T08:04:26.131Z,17.87
2018-06-30T08:06:54.134Z,19.50
2018-06-30T08:09:22.261Z,18.00
2018-06-30T08:11:50.510Z,18.17
2018-06-30T08:14:18.653Z,18.23
2018-06-30T08:16:47.034Z,16.70
2018-06-30T08:19:15.590Z,15.70
2018-06-30T08:21:44.505Z,17.73
2018-06-30T08:24:12.886Z,15.93
2018-06-30T08:26:41.072Z,18.07
2018-06-30T08:29:10.225Z,17.73
2018-06-30T08:31:39.888Z,16.37
2018-06-30T08:34:07.893Z,17.50
2018-06-30T08:36:35.954Z,15.53
2018-06-30T08:39:06.728Z,16.13
2018-06-30T08:41:34.717Z,16.80
2018-06-30T08:44:02.847Z,16.87
2018-06-30T08:46:30.804Z,17.90
2018-06-30T08:48:58.772Z,18.17
2018-06-30T08:51:26.772Z,18.10
2018-06-30T08:53:54.783Z,17.37
2018-06-30T08:56:22.739Z,17.20
2018-06-30T08:58:50.914Z,18.37
2018-06-30T09:01:19.981Z,17.23
2018-06-30T09:03:48.353Z,18.20
2018-06-30T09:06:16.556Z,19.00
2018-06-30T09:08:44.729Z,17.77
2018-06-30T09:11:12.790Z,17.90
2018-06-30T09:13:40.812Z,18.33
2018-06-30T09:16:08.884Z,17.90
2018-06-30T09:18:36.937Z,17.20
2018-06-30T09:21:05.035Z,14.10
2018-06-30T09:23:33.241Z,15.50
2018-06-30T09:26:01.693Z,15.23
2018-06-30T09:28:29.882Z,16.27
2018-06-30T09:30:58.362Z,12.70
2018-06-30T09:33:26.375Z,12.00
2018-06-30T09:35:58.332Z,9.57
2018-06-30T09:38:26.608Z,10.23
2018-06-30T09:40:54.999Z,11.57
2018-06-30T09:43:23.014Z,11.93
2018-06-30T09:45:51.187Z,10.73
2018-06-30T09:48:19.366Z,10.33
2018-06-30T09:50:47.616Z,9.90
2018-06-30T09:53:15.748Z,6.77
2018-06-30T09:55:44.396Z,7.00
2018-06-30T09:58:12.649Z,6.90
2018-06-30T10:00:46.302Z,7.23
2018-06-30T10:03:15.183Z,9.50
2018-06-30T10:05:43.755Z,8.23
2018-06-30T10:08:12.197Z,7.40
2018-06-30T10:10:40.114Z,7.00
2018-06-30T10:13:09.291Z,7.90
2018-06-30T10:15:37.244Z,8.67
2018-06-30T10:18:06.609Z,8.63
2018-06-30T10:20:35.284Z,8.50
2018-06-30T10:23:04.566Z,8.73
2018-06-30T10:25:33.168Z,9.73
2018-06-30T10:28:01.182Z,10.40
2018-06-30T10:30:29.476Z,8.70
2018-06-30T10:32:57.440Z,8.30
2018-06-30T10:35:25.615Z,14.13
2018-06-30T10:37:53.617Z,11.80
2018-06-30T10:40:21.717Z,11.40
2018-06-30T10:42:52.775Z,10.70
2018-06-30T10:45:21.474Z,10.77
2018-06-30T10:47:50.070Z,9.70
2018-06-30T10:50:18.281Z,11.63
2018-06-30T10:52:46.598Z,12.30
2018-06-30T10:55:16.249Z,11.80
2018-06-30T10:57:44.998Z,11.73
2018-06-30T11:00:13.665Z,11.07
2018-06-30T11:02:43.059Z,10.80
2018-06-30T11:05:11.603Z,9.07
2018-06-30T11:07:39.773Z,8.00
2018-06-30T11:10:09.135Z,7.30
2018-06-30T11:12:37.793Z,7.17
2018-06-30T11:15:06.009Z,6.80
2018-06-30T11:17:36.387Z,7.83
2018-06-30T11:20:05.360Z,6.70
2018-06-30T11:22:33.573Z,6.07
2018-06-30T11:25:02.386Z,5.83
2018-06-30T11:27:31.135Z,5.10
2018-06-30T11:29:59.088Z,5.40
2018-06-30T11:32:27.025Z,5.50
2018-06-30T11:34:55.479Z,4.87
2018-06-30T11:37:23.512Z,5.90
2018-06-30T11:39:51.521Z,5.23
2018-06-30T11:42:23.721Z,4.40
2018-06-30T11:44:52.659Z,5.00
2018-06-30T11:47:21.019Z,6.00
2018-06-30T11:49:49.886Z,4.90
2018-06-30T11:52:19.581Z,5.00
2018-06-30T11:54:49.147Z,5.27
2018-06-30T11:57:17.475Z,3.90
2018-06-30T11:59:45.734Z,4.77
2018-06-30T12:02:16.790Z,3.80
2018-06-30T12:04:45.313Z,4.80
2018-06-30T12:07:14.584Z,4.97
2018-06-30T12:09:43.088Z,5.20
2018-06-30T12:12:11.124Z,4.40
2018-06-30T12:14:39.257Z,4.30
2018-06-30T12:17:07.340Z,4.63
2018-06-30T12:19:35.743Z,5.00
2018-06-30T12:22:04.115Z,4.00
2018-06-30T12:24:32.104Z,3.80
2018-06-30T12:27:08.502Z,4.50
2018-06-30T12:29:37.194Z,3.80
2018-06-30T12:32:05.526Z,4.00
2018-06-30T12:34:35.662Z,4.90
2018-06-30T12:37:04.399Z,3.80
2018-06-30T12:39:32.718Z,3.60
2018-06-30T12:42:02.244Z,4.60
2018-06-30T12:44:30.244Z,4.30
2018-06-30T12:46:58.621Z,3.80
2018-06-30T12:49:26.945Z,4.60
2018-06-30T12:51:54.926Z,4.80
2018-06-30T12:54:23.095Z,4.10
2018-06-30T12:56:51.126Z,4.10
2018-06-30T12:59:20.153Z,4.00
2018-06-30T13:01:48.906Z,4.60
2018-06-30T13:04:17.560Z,5.60
2018-06-30T13:06:45.825Z,6.03
2018-06-30T13:09:14.968Z,7.23
2018-06-30T13:11:43.909Z,7.60
2018-06-30T13:14:12.034Z,7.67
2018-06-30T13:16:40.172Z,7.50
2018-06-30T13:19:09.117Z,7.97
2018-06-30T13:21:38.050Z,7.40
2018-06-30T13:24:06.437Z,7.97
2018-06-30T13:26:35.017Z,7.00
2018-06-30T13:29:03.236Z,6.90
2018-06-30T13:31:31.478Z,6.80
2018-06-30T13:33:59.965Z,7.60
2018-06-30T13:36:28.015Z,6.77
2018-06-30T13:38:56.060Z,7.67
2018-06-30T13:41:26.952Z,7.83
2018-06-30T13:43:54.953Z,7.60
2018-06-30T13:46:22.972Z,8.00
2018-06-30T13:48:51.033Z,8.50
2018-06-30T13:51:19.420Z,8.70
2018-06-30T13:53:47.865Z,8.67
2018-06-30T13:56:16.390Z,9.00
2018-06-30T13:58:45.638Z,10.07
2018-06-30T14:01:15.030Z,9.87
2018-06-30T14:03:43.594Z,8.63
2018-06-30T14:06:12.642Z,9.60
2018-06-30T14:08:41.337Z,9.07
2018-06-30T14:11:09.898Z,9.57
2018-06-30T14:13:38.521Z,9.70
2018-06-30T14:16:07.074Z,9.93
2018-06-30T14:18:35.279Z,10.50
2018-06-30T14:21:03.839Z,10.20
2018-06-30T14:23:32.098Z,9.70
2018-06-30T14:26:01.690Z,9.53
2018-06-30T14:28:30.323Z,8.80
2018-06-30T14:30:59.045Z,9.10
2018-06-30T14:33:27.103Z,8.13
2018-06-30T14:35:55.334Z,7.97
2018-06-30T14:38:23.434Z,8.10
2018-06-30T14:40:52.092Z,9.43
2018-06-30T14:43:20.669Z,9.00
2018-06-30T14:45:48.884Z,9.80
2018-06-30T14:48:18.975Z,8.67
2018-06-30T14:50:47.829Z,9.50
2018-06-30T14:53:16.207Z,10.23
2018-06-30T14:55:44.548Z,9.70
2018-06-30T14:58:13.081Z,10.07
2018-06-30T15:00:43.764Z,10.13
2018-06-30T15:03:12.073Z,8.50
2018-06-30T15:05:40.223Z,9.00
2018-06-30T15:08:08.245Z,9.10
2018-06-30T15:10:36.314Z,8.73
2018-06-30T15:13:04.571Z,8.23
2018-06-30T15:15:32.665Z,9.00
2018-06-30T15:18:00.649Z,8.97
2018-06-30T15:20:28.661Z,9.50
2018-06-30T15:22:56.756Z,9.30
2018-06-30T15:25:25.346Z,8.47
2018-06-30T15:27:53.636Z,8.50
2018-06-30T15:30:22.119Z,8.00
2018-06-30T15:32:54.346Z,8.40
2018-06-30T15:35:22.930Z,8.30
2018-06-30T15:37:51.092Z,8.80
2018-06-30T15:40:23.919Z,8.37
2018-06-30T15:42:52.140Z,9.00
2018-06-30T15:45:20.331Z,8.63
2018-06-30T15:47:49.337Z,8.90
2018-06-30T15:50:19.850Z,9.10
2018-06-30T15:52:48.085Z,8.87
2018-06-30T15:55:16.380Z,8.13
2018-06-30T15:57:45.465Z,7.83
2018-06-30T16:00:13.832Z,8.30
2018-06-30T16:02:42.294Z,8.93
2018-06-30T16:05:10.394Z,8.50
2018-06-30T16:07:43.554Z,8.37
2018-06-30T16:10:14.053Z,7.47
2018-06-30T16:12:42.344Z,7.60
2018-06-30T16:15:10.429Z,8.40
2018-06-30T16:17:40.249Z,7.80
2018-06-30T16:20:08.499Z,7.83
2018-06-30T16:22:38.153Z,8.30
2018-06-30T16:25:07.041Z,7.57
2018-06-30T16:27:35.710Z,9.07
2018-06-30T16:30:03.921Z,7.40
2018-06-30T16:32:32.361Z,8.10
2018-06-30T16:35:00.509Z,7.67
2018-06-30T16:37:28.651Z,7.90
2018-06-30T16:39:56.650Z,7.57
2018-06-30T16:42:25.014Z,7.77
2018-06-30T16:44:53.510Z,7.97
2018-06-30T16:47:22.250Z,9.20
2018-06-30T16:49:51.007Z,7.03
2018-06-30T16:52:23.819Z,6.83
2018-06-30T16:54:52.174Z,8.57
2018-06-30T16:57:20.487Z,7.07
2018-06-30T16:59:49.886Z,6.90
2018-06-30T17:02:19.413Z,7.27
2018-06-30T17:04:48.162Z,7.33
2018-06-30T17:07:16.336Z,7.40
2018-06-30T17:09:44.455Z,7.10
2018-06-30T17:12:12.587Z,7.20
2018-06-30T17:14:40.717Z,6.67
2018-06-30T17:17:08.939Z,7.27
2018-06-30T17:19:36.969Z,7.30
2018-06-30T17:22:04.938Z,6.73
2018-06-30T17:24:32.899Z,7.20
2018-06-30T17:27:00.888Z,5.87
2018-06-30T17:29:29.162Z,6.37
2018-06-30T17:31:57.065Z,6.40
2018-06-30T17:34:24.980Z,4.93
2018-06-30T17:36:53.029Z,4.60
2018-06-30T17:39:21.057Z,5.70
2018-06-30T17:41:49.038Z,5.37
2018-06-30T17:44:17.217Z,4.57
2018-06-30T17:46:45.290Z,4.17
2018-06-30T17:49:13.369Z,4.20
2018-06-30T17:51:41.281Z,4.53
2018-06-30T17:54:09.414Z,3.63
2018-06-30T17:56:37.529Z,3.67
2018-06-30T17:59:06.297Z,4.10
2018-06-30T18:01:34.445Z,4.30
2018-06-30T18:04:02.491Z,3.63
2018-06-30T18:06:30.483Z,3.70
2018-06-30T18:08:58.429Z,4.03
2018-06-30T18:11:26.416Z,3.13
2018-06-30T18:13:54.315Z,3.27
2018-06-30T18:16:22.265Z,3.97
2018-06-30T18:18:50.228Z,3.87
2018-06-30T18:21:18.284Z,2.70
2018-06-30T18:23:46.925Z,2.83
2018-06-30T18:26:15.018Z,3.43
2018-06-30T18:28:42.988Z,3.30
2018-06-30T18:31:10.933Z,2.60
2018-06-30T18:33:39.057Z,2.90
2018-06-30T18:36:08.058Z,2.70
2018-06-30T18:38:36.006Z,3.40
2018-06-30T18:41:03.909Z,2.43
2018-06-30T18:43:31.854Z,2.77
2018-06-30T18:45:59.852Z,2.70
2018-06-30T18:48:27.776Z,2.80
2018-06-30T18:50:55.704Z,2.70
2018-06-30T18:53:23.633Z,2.93
2018-06-30T18:55:51.672Z,3.10
2018-06-30T18:58:19.828Z,2.90
2018-06-30T19:00:47.750Z,3.17
2018-06-30T19:03:15.996Z,2.33
2018-06-30T19:05:44.126Z,3.13
2018-06-30T19:08:12.099Z,2.87
2018-06-30T19:10:40.197Z,2.93
2018-06-30T19:13:08.237Z,2.30
2018-06-30T19:15:36.158Z,2.97
2018-06-30T19:18:04.179Z,2.37
2018-06-30T19:20:32.151Z,2.70
2018-06-30T19:23:00.077Z,2.70
2018-06-30T19:25:28.032Z,3.10
2018-06-30T19:27:55.957Z,2.80
2018-06-30T19:30:24.113Z,2.57
2018-06-30T19:32:52.113Z,2.30
2018-06-30T19:35:20.039Z,3.50
2018-06-30T19:37:48.181Z,3.10
2018-06-30T19:40:16.243Z,3.10
2018-06-30T19:42:44.280Z,2.20
2018-06-30T19:45:12.418Z,2.37
2018-06-30T19:47:41.183Z,2.30
2018-06-30T19:50:09.114Z,2.50
2018-06-30T19:52:38.601Z,2.27
2018-06-30T19:55:06.561Z,1.77
2018-06-30T19:57:34.486Z,2.27
2018-06-30T20:00:02.529Z,1.60
2018-06-30T20:02:30.526Z,2.33
2018-06-30T20:04:58.457Z,1.73
2018-06-30T20:07:26.419Z,2.90
2018-06-30T20:09:54.375Z,4.40
2018-06-30T20:12:22.345Z,5.53
2018-06-30T20:14:50.284Z,4.53
2018-06-30T20:17:18.284Z,3.00
2018-06-30T20:19:46.268Z,3.23
2018-06-30T20:22:14.268Z,1.30
2018-06-30T20:24:42.452Z,2.10
2018-06-30T20:27:10.399Z,2.00
2018-06-30T20:29:44.889Z,2.70
2018-06-30T20:32:13.094Z,1.70
2018-06-30T20:34:41.055Z,2.10
2018-06-30T20:37:09.073Z,2.43
2018-06-30T20:39:37.113Z,2.27
2018-06-30T20:42:05.107Z,1.90
2018-06-30T20:44:33.179Z,2.00
2018-06-30T20:47:01.133Z,1.90
2018-06-30T20:49:29.077Z,2.00
2018-06-30T20:51:57.037Z,2.00
2018-06-30T20:54:24.971Z,2.17
2018-06-30T20:56:52.959Z,3.00
2018-06-30T20:59:20.958Z,2.07
2018-06-30T21:01:49.111Z,2.07
2018-06-30T21:04:17.029Z,2.60
2018-06-30T21:06:45.031Z,2.07
2018-06-30T21:09:13.007Z,2.20
2018-06-30T21:11:41.314Z,1.80
2018-06-30T21:14:10.100Z,2.40
2018-06-30T21:16:38.012Z,2.00
2018-06-30T21:19:06.669Z,2.30
2018-06-30T21:21:34.600Z,2.20
2018-06-30T21:24:02.556Z,2.70
2018-06-30T21:26:30.627Z,2.13
2018-06-30T21:28:59.490Z,2.17
2018-06-30T21:31:28.063Z,1.70
2018-06-30T21:33:56.433Z,1.90
2018-06-30T21:36:24.354Z,2.37
2018-06-30T21:38:52.263Z,2.40
2018-06-30T21:41:20.257Z,1.70
2018-06-30T21:43:48.285Z,1.97
2018-06-30T21:46:16.333Z,2.30
2018-06-30T21:48:44.362Z,2.03
2018-06-30T21:51:12.711Z,3.60
2018-06-30T21:53:40.656Z,1.73
2018-06-30T21:56:08.593Z,2.00
2018-06-30T21:58:37.325Z,1.57
2018-06-30T22:01:26.328Z,1.83
2018-06-30T22:03:55.797Z,2.10
2018-06-30T22:06:23.658Z,1.67
2018-06-30T22:08:51.581Z,1.63
2018-06-30T22:11:26.017Z,1.60
2018-06-30T22:13:53.980Z,1.83
2018-06-30T22:16:21.886Z,2.10
2018-06-30T22:18:49.832Z,2.00
2018-06-30T22:21:17.814Z,1.43
2018-06-30T22:23:45.764Z,1.70
2018-06-30T22:26:14.317Z,1.40
2018-06-30T22:28:42.307Z,1.77
2018-06-30T22:31:10.265Z,1.37
2018-06-30T22:33:38.303Z,2.00
2018-06-30T22:36:06.620Z,1.57
2018-06-30T22:38:34.679Z,1.67
2018-06-30T22:41:03.620Z,1.63
2018-06-30T22:43:31.612Z,1.40
2018-06-30T22:45:59.561Z,1.50
2018-06-30T22:48:27.833Z,1.70
2018-06-30T22:50:55.780Z,1.37
2018-06-30T22:53:23.737Z,1.27
2018-06-30T22:55:51.877Z,1.47
2018-06-30T22:58:19.835Z,2.43
2018-06-30T23:00:47.817Z,1.10
2018-06-30T23:03:15.801Z,1.37
2018-06-30T23:05:43.844Z,1.73
2018-06-30T23:08:11.780Z,1.30
2018-06-30T23:10:39.712Z,1.57
2018-06-30T23:13:07.676Z,1.67
2018-06-30T23:15:35.641Z,1.30
2018-06-30T23:18:03.640Z,1.10
2018-06-30T23:20:31.655Z,1.63
2018-06-30T23:23:03.838Z,1.53
2018-06-30T23:25:32.633Z,1.43
2018-06-30T23:28:00.773Z,1.40
2018-06-30T23:30:29.284Z,1.47
2018-06-30T23:32:57.303Z,2.17
2018-06-30T23:35:29.749Z,1.40
2018-06-30T23:37:58.589Z,1.20
2018-06-30T23:40:26.540Z,1.80
2018-06-30T23:42:54.531Z,1.60
2018-06-30T23:45:22.892Z,1.43
2018-06-30T23:47:51.536Z,2.70
2018-06-30T23:50:19.688Z,1.40
2018-06-30T23:52:47.867Z,1.90
2018-06-30T23:55:16.217Z,1.63
2018-06-30T23:57:44.205Z,1.87
